Kankakee, IL

6:38 AM CST on December 12, 2017 (GMT -0600)
Greater Kankakee

Weather History for KIKK - October, 2012

Change the Weather History Date:

Thursday, October 4, 2012

  Actual Average Record
Temperature  
Mean Temperature 66 °F -  
Max Temperature 80 °F 71 °F 89 °F (2007)
Min Temperature 51 °F 44 °F 28 °F (1989)
Growing Degree Days 16 (Base 50)    
Moisture  
Dew Point 53 °F    
Average Humidity 73    
Maximum Humidity 90    
Minimum Humidity 40    
Precipitation  
Precipitation 0.33 in - - ()
Sea Level Pressure  
Sea Level Pressure 30.08 in    
Wind  
Wind Speed 9 mph (SW)    
Max Wind Speed 22 mph    
Max Gust Speed 30 mph    
Visibility 10 miles    
Events Rain    
Averages and records for this station are not official NWS values.
T = Trace of Precipitation, MM = Missing Value Source: NWS Daily Summary

Daily Weather History Graph

Daily Weather History Graph

Search for Another Location

Airport or City:

Trip Planner

Search our weather history database for the weather conditions in past years. The results will help you decide how hot, cold, wet, or windy it might be!

Date:

Astronomy

Oct. 04, 2012 Rise Set
Actual Time 6:51 AM CDT 6:27 PM CDT
Civil Twilight 6:24 AM CDT 6:54 PM CDT
Nautical Twilight 5:52 AM CDT 7:26 PM CDT
Astronomical Twilight 5:20 AM CDT 7:58 PM CDT
Moon 9:00 PM CDT (10/4) 11:10 AM CDT (10/4)
Length of Visible Light 12h 30m
Length of Day
11h 35m
Waning Gibbous, 82% of the Moon is Illuminated
Oct 4
Waning Gibbous
Oct 8
Last Quarter
Oct 15
New
Oct 21
First Quarter
Oct 29
Full

Hourly Weather History & Observations

Time (CDT) Temp. Heat Index Dew Point Humidity Pressure Visibility Wind Dir Wind Speed Gust Speed Precip Events Conditions
12:15 AM 59.4 °F - 55.0 °F 86% 30.07 in 10.0 mi WSW 5.8 mph - N/A   Scattered Clouds
12:35 AM 59.9 °F - 52.9 °F 78% 30.07 in 10.0 mi WSW 5.8 mph - N/A   Light Drizzle
12:55 AM 59.0 °F - 53.1 °F 81% 30.07 in 10.0 mi WSW 3.5 mph - N/A Rain Light Rain
1:15 AM 58.1 °F - 53.1 °F 83% 30.08 in 10.0 mi SW 4.6 mph - N/A   Light Drizzle
1:35 AM 57.9 °F - 52.7 °F 83% 30.08 in 10.0 mi SW 6.9 mph - N/A   Overcast
1:55 AM 58.1 °F - 52.3 °F 81% 30.09 in 10.0 mi WSW 10.4 mph - N/A Rain Light Rain
2:15 AM 57.7 °F - 52.9 °F 84% 30.09 in 10.0 mi WSW 9.2 mph - 0.03 in Rain Rain
2:35 AM 57.6 °F - 53.2 °F 85% 30.08 in 10.0 mi SSW 9.2 mph - 0.05 in Rain Light Rain
2:55 AM 57.4 °F - 53.6 °F 87% 30.07 in 10.0 mi South 6.9 mph - 0.06 in Rain Light Rain
3:15 AM 57.2 °F - 53.6 °F 88% 30.08 in 10.0 mi SSW 3.5 mph - N/A   Overcast
3:35 AM 56.8 °F - 53.6 °F 89% 30.08 in 10.0 mi South 4.6 mph - N/A Rain Light Rain
3:55 AM 57.2 °F - 53.6 °F 88% 30.07 in 10.0 mi South 9.2 mph - 0.01 in Rain Rain
4:15 AM 57.9 °F - 53.6 °F 86% 30.08 in 10.0 mi SSW 11.5 mph - N/A Rain Light Rain
4:35 AM 58.1 °F - 52.9 °F 83% 30.08 in 10.0 mi South 10.4 mph - N/A   Overcast
4:55 AM 57.4 °F - 52.9 °F 85% 30.08 in 10.0 mi South 9.2 mph - N/A   Mostly Cloudy
5:15 AM 56.3 °F - 52.9 °F 88% 30.09 in 10.0 mi South 8.1 mph - N/A   Scattered Clouds
5:35 AM 56.3 °F - 52.7 °F 88% 30.09 in 10.0 mi South 8.1 mph - N/A   Scattered Clouds
5:55 AM 55.4 °F - 52.2 °F 89% 30.09 in 10.0 mi South 6.9 mph - 0.01 in   Clear
6:15 AM 55.6 °F - 52.5 °F 89% 30.09 in 10.0 mi South 8.1 mph - N/A   Clear
6:35 AM 55.0 °F - 52.0 °F 89% 30.09 in 10.0 mi South 8.1 mph - N/A   Clear
6:55 AM 55.0 °F - 52.2 °F 90% 30.08 in 10.0 mi South 9.2 mph - N/A   Clear
7:15 AM 54.9 °F - 52.0 °F 90% 30.09 in 10.0 mi South 6.9 mph - N/A   Clear
7:35 AM 55.8 °F - 52.7 °F 89% 30.10 in 10.0 mi South 9.2 mph - N/A   Clear
7:55 AM 57.2 °F - 53.6 °F 88% 30.10 in 10.0 mi South 10.4 mph - N/A   Scattered Clouds
8:15 AM 58.1 °F - 53.8 °F 86% 30.10 in 10.0 mi South 10.4 mph - N/A   Clear
8:35 AM 59.7 °F - 54.7 °F 83% 30.10 in 10.0 mi South 9.2 mph - N/A   Scattered Clouds
8:55 AM 61.2 °F - 55.2 °F 81% 30.10 in 10.0 mi SSW 9.2 mph - N/A   Scattered Clouds
9:15 AM 63.3 °F - 56.1 °F 77% 30.10 in 10.0 mi SSW 9.2 mph - N/A   Clear
9:35 AM 64.4 °F - 57.2 °F 77% 30.10 in 10.0 mi SSW 8.1 mph - N/A   Clear
9:55 AM 66.2 °F - 57.4 °F 73% 30.09 in 10.0 mi SSW 11.5 mph - N/A   Clear
10:15 AM 67.8 °F - 58.3 °F 71% 30.09 in 10.0 mi South 9.2 mph - N/A   Clear
10:35 AM 69.3 °F - 58.5 °F 68% 30.08 in 10.0 mi South 13.8 mph - N/A   Clear
10:55 AM 70.7 °F - 58.6 °F 66% 30.08 in 10.0 mi South 13.8 mph - N/A   Clear
11:15 AM 71.8 °F - 57.9 °F 62% 30.08 in 10.0 mi SSW 12.7 mph 18.4 mph N/A   Scattered Clouds
11:35 AM 73.6 °F - 58.3 °F 59% 30.07 in 10.0 mi SSW 15.0 mph 19.6 mph N/A   Scattered Clouds
11:55 AM 75.0 °F - 58.3 °F 56% 30.07 in 10.0 mi SSW 11.5 mph 20.7 mph N/A   Clear
12:15 PM 76.3 °F - 58.3 °F 54% 30.06 in 10.0 mi SSW 12.7 mph 20.7 mph N/A   Clear
12:35 PM 77.2 °F - 56.5 °F 49% 30.05 in 10.0 mi SSW 20.7 mph 25.3 mph N/A   Clear
12:55 PM 77.9 °F - 56.1 °F 47% 30.05 in 10.0 mi SSW 16.1 mph 21.9 mph N/A   Clear
1:15 PM 78.6 °F - 55.6 °F 45% 30.04 in 10.0 mi SSW 16.1 mph 24.2 mph N/A   Clear
1:35 PM 79.3 °F - 54.5 °F 42% 30.03 in 10.0 mi SSW 20.7 mph 24.2 mph N/A   Clear
1:55 PM 79.9 °F - 54.3 °F 41% 30.03 in 10.0 mi SSW 21.9 mph 27.6 mph N/A   Mostly Cloudy
2:15 PM 79.0 °F - 53.8 °F 42% 30.03 in 10.0 mi SSW 18.4 mph 26.5 mph N/A   Mostly Cloudy
2:35 PM 79.0 °F - 53.8 °F 42% 30.03 in 10.0 mi SW 18.4 mph 23.0 mph N/A   Mostly Cloudy
2:55 PM 79.0 °F - 54.5 °F 43% 30.02 in 10.0 mi SSW 17.3 mph 26.5 mph N/A   Overcast
3:15 PM 78.3 °F - 53.8 °F 43% 30.02 in 10.0 mi SW 16.1 mph 26.5 mph N/A   Overcast
3:35 PM 80.1 °F 80.0 °F 53.6 °F 40% 30.02 in 10.0 mi SW 15.0 mph 29.9 mph N/A   Mostly Cloudy
3:55 PM 78.1 °F - 54.1 °F 43% 30.03 in 10.0 mi WSW 19.6 mph 26.5 mph N/A   Mostly Cloudy
4:15 PM 76.1 °F - 55.9 °F 50% 30.03 in 10.0 mi West 17.3 mph 21.9 mph N/A   Mostly Cloudy
4:35 PM 73.8 °F - 55.9 °F 54% 30.03 in 10.0 mi West 15.0 mph 20.7 mph N/A   Overcast
4:55 PM 72.9 °F - 56.1 °F 56% 30.05 in 10.0 mi West 18.4 mph 21.9 mph N/A   Overcast
5:15 PM 68.9 °F - 54.0 °F 59% 30.06 in 10.0 mi West 13.8 mph 24.2 mph N/A   Overcast
5:35 PM 67.5 °F - 53.1 °F 60% 30.08 in 10.0 mi WNW 15.0 mph 25.3 mph N/A   Overcast
5:55 PM 64.6 °F - 49.1 °F 57% 30.09 in 10.0 mi WNW 17.3 mph 26.5 mph N/A   Overcast
6:15 PM 63.0 °F - 48.6 °F 59% 30.08 in 10.0 mi WNW 10.4 mph 18.4 mph N/A   Overcast
6:35 PM 61.3 °F - 50.2 °F 67% 30.08 in 10.0 mi WNW 6.9 mph - N/A   Overcast
6:55 PM 61.2 °F - 50.7 °F 69% 30.08 in 10.0 mi West 4.6 mph - N/A   Overcast
7:15 PM 60.3 °F - 51.3 °F 72% 30.09 in 10.0 mi West 19.6 mph 25.3 mph N/A   Overcast
7:35 PM 54.7 °F - 50.4 °F 85% 30.11 in 10.0 mi WNW 15.0 mph 20.7 mph 0.02 in Rain Rain
7:55 PM 52.5 °F - 49.3 °F 89% 30.12 in 5.0 mi West 10.4 mph 21.9 mph 0.10 in Rain Rain
8:15 PM 52.0 °F - 49.1 °F 90% 30.11 in 7.0 mi West 9.2 mph - 0.06 in Rain Heavy Rain
8:35 PM 51.4 °F - 48.4 °F 89% 30.12 in 7.0 mi West 10.4 mph - 0.12 in Rain Light Rain
8:55 PM 51.8 °F - 48.2 °F 88% 30.11 in 10.0 mi WNW 6.9 mph - N/A Rain Rain
9:15 PM 51.8 °F - 48.2 °F 88% 30.12 in 10.0 mi West 8.1 mph - 0.01 in   Light Drizzle
9:35 PM 51.8 °F - 48.7 °F 89% 30.14 in 7.0 mi West 9.2 mph - 0.02 in Rain Light Rain
9:55 PM 51.8 °F - 48.6 °F 89% 30.14 in 10.0 mi West 8.1 mph - 0.03 in   Overcast
10:15 PM 51.8 °F - 48.6 °F 89% 30.14 in 10.0 mi West 5.8 mph - N/A   Overcast
10:35 PM 51.8 °F - 48.2 °F 88% 30.15 in 10.0 mi WSW 6.9 mph - N/A   Overcast
10:55 PM 51.8 °F - 48.2 °F 88% 30.15 in 10.0 mi WSW 6.9 mph - N/A   Overcast
11:15 PM 51.8 °F - 47.8 °F 86% 30.15 in 10.0 mi West 8.1 mph - N/A   Overcast
11:35 PM 51.8 °F - 47.7 °F 86% 30.16 in 10.0 mi West 6.9 mph - N/A   Overcast
11:55 PM 51.8 °F - 47.5 °F 85% 30.16 in 10.0 mi West 8.1 mph - N/A   Overcast